Terminal Aerodrome Forecast
Issued by NWS

Home | Current Version | Previous Version | Text Only | Print | Product List | Glossary On
Versions: 1 2 3 4 5 6 7 8 9 10 11 12 13 14 15 16 17 18 19 20
847
FTUS45 KTFX 251602 AAB
TAFCTB
TAF AMD
KCTB 251602Z 2516/2612 12006KT 1/2SM FG OVC002
     FM251800 18010KT P6SM SCT006 OVC040
      TEMPO 2522/2602 -SHRA BKN030
     FM260400 VRB06KT P6SM -SHRA SCT005 OVC025=

USA.gov is the U.S. government's official web portal to all federal, state and local government web resources and services.